Mendota, IL

7:21 PM CST on February 09, 2016 (GMT -0600)
Welland and Angling Roads | | Change Station
CLOSE
Current Station
Personal Weather Station
Location: Earlville, IL
Elevation: 833 ft
Nearby Weather Stations

Elev 833 ft 41.63 °N, 89.02 °W | Updated 18 seconds ago

Overcast
Overcast
14.2 °F
Feels Like 7 °F
N
4.5
Wind Variable Wind from NW
Gusts 7.6 mph

Today
High -- | Low -- °F
--% Chance of Precip.
Yesterday
High -- | Low -- °F
Precip. -- in
Pressure 30.01 in
Visibility 10.0 miles
Clouds Scattered Clouds 2900 ft
Overcast 4000 ft
Windchill 7 °F
Dew Point 7 °F
Humidity 71%
Rainfall 0.00 in
Snow Depth Not available.
6:59 AM 5:21 PM
Waxing Crescent, 3% visible
METAR KVYS 100055Z AUTO 32016G21KT 10SM SCT029 OVC040 M08/M13 A3001 RMK AO2 T10821135
Pressure 30.01 in
Visibility 10.0 miles
Clouds Scattered Clouds 2900 ft
Overcast 4000 ft
Windchill 7 °F
Dew Point 7 °F
Humidity 71%
Rainfall 0.00 in
Snow Depth Not available.
6:59 AM 5:21 PM
Waxing Crescent, 3% visible
METAR KVYS 100055Z AUTO 32016G21KT 10SM SCT029 OVC040 M08/M13 A3001 RMK AO2 T10821135

10-Day Weather Forecast

Almanac

Astronomy

Feb. 09, 2016 Rise Set
Actual Time
Civil Twilight
Nautical Twilight
Astronomical Twilight
Moon
Length of Visible Light
Length of Day
Tomorrow will be .
, % of the Moon is Illuminated

Today's Extremes

State Highs State Lows

Community

WunderPhotos

Upload Photos

1,891,758 photos uploaded!

WunderBlog® & News

Nearby

Air Quality

  Air Quality AQ Index Pollutant
Not available.

Snow Depth

Station Depth Elevation

Earthquake Activity

City Distance Mag. Time & Date
Minimum magnitude displayed is 2.5.

Coastal Water Temperatures

Place Temperature

Stations

Nearby Weather Stations

Station Location Temp. Windchill Dew Point Humidity Wind Precip. Elev Updated Type
                   

Watches & Warnings

There are currently no watches in effect.